ADDS METAR Data INFO
IDs: Format: Raw Decoded Include TAF

Data at: 1120 UTC 21 Feb 2018

KBWI 201454Z 21008KT 10SM FEW013 SCT080 BKN160 BKN250 16/14 A3036 RMK AO2 SLP281 T01610139 51005
KBWI 201415Z 23010G15KT 10SM SCT008 BKN160 BKN250 14/13 A3036 RMK AO2 T01440133
KBWI 201354Z 23007KT 9SM BKN007 BKN013 13/13 A3036 RMK AO2 SLP282 T01280128
KBWI 201254Z 22006KT 6SM BR OVC006 12/12 A3036 RMK AO2 SLP282 T01170117
KBWI 201154Z 24006KT 5SM BR OVC005 11/11 A3035 RMK AO2 SLP277 70001 T01110111 10111 20094 53013
KBWI 201054Z 22007KT 7SM OVC005 11/11 A3032 RMK AO2 SLP268 T01060106
KBWI 201020Z 23009KT 6SM BR OVC005 11/11 A3032 RMK AO2 T01060106
KBWI 200954Z 22007KT 4SM BR OVC004 11/11 A3031 RMK AO2 SLP265 T01060106
KBWI 200923Z 22006KT 3SM BR OVC003 11/11 A3030 RMK AO2 T01060106
KBWI 200854Z 22007KT 2 1/2SM BR OVC004 10/10 A3031 RMK AO2 SLP263 T01000100 58006
KBWI 200754Z 22006KT 5SM BR OVC004 10/10 A3031 RMK AO2 SLP265 T01000100
KBWI 200717Z 22007KT 6SM BR OVC004 10/10 A3031 RMK AO2 T01000100
KBWI 200654Z 22006KT 5SM BR OVC005 10/10 A3033 RMK AO2 SLP269 T01000100
KBWI 200554Z 21003KT 6SM BR OVC006 09/09 A3032 RMK AO2 SLP269 60000 T00940094 10094 20067 58004
KBWI 200454Z 22003KT 6SM BR OVC006 09/09 A3034 RMK AO2 SLP273 T00890089 400890000
KBWI 200354Z 19003KT 4SM BR BKN009 OVC015 07/07 A3034 RMK AO2 SLP274 T00670067
KBWI 200344Z 00000KT 4SM BR BKN009 OVC015 07/07 A3034 RMK AO2 T00720072
KBWI 200254Z 00000KT 3SM BR SCT009 OVC018 07/07 A3034 RMK AO2 SLP273 60000 T00720072 50001
KBWI 200244Z 00000KT 2SM BR BKN008 OVC018 07/07 A3034 RMK AO2 T00720072
KBWI 200224Z 00000KT 1 3/4SM BR OVC007 07/07 A3034 RMK AO2 T00670067
KBWI 200154Z 00000KT 3/4SM R10/3500V4500FT BR VV004 07/07 A3035 RMK AO2 SLP276 T00670067
KBWI 200054Z 00000KT 1/4SM R10/2400V2600FT FG VV003 07/07 A3034 RMK AO2 DZE52 SLP274 P0000 T00670067
KBWI 192354Z 00000KT 1/8SM R10/2800V3500FT -DZ FG VV003 07/07 A3033 RMK AO2 SLP272 P0000 60000 T00670067 10067 20056 56007